createdAt,value
2018-08-09T05:55:57.804Z,19.20
2018-08-09T05:58:26.464Z,20.30
2018-08-09T06:00:55.787Z,20.30
2018-08-09T06:03:24.314Z,20.40
2018-08-09T06:05:52.935Z,20.40
2018-08-09T06:08:21.500Z,20.50
2018-08-09T06:10:50.181Z,20.50
2018-08-09T06:13:19.130Z,20.60
2018-08-09T06:15:48.448Z,20.70
2018-08-09T06:18:17.020Z,20.70
2018-08-09T06:20:46.796Z,20.70
2018-08-09T06:23:15.410Z,20.70
2018-08-09T06:25:43.944Z,20.70
2018-08-09T06:28:12.520Z,20.70
2018-08-09T06:30:41.136Z,20.70
2018-08-09T06:33:11.504Z,20.80
2018-08-09T06:35:40.070Z,20.80
2018-08-09T06:38:08.619Z,20.90
2018-08-09T06:40:37.248Z,21.00
2018-08-09T06:43:05.915Z,21.20
2018-08-09T06:45:34.986Z,21.30
2018-08-09T06:48:03.557Z,21.50
2018-08-09T06:50:32.864Z,21.60
2018-08-09T06:53:01.901Z,21.80
2018-08-09T06:55:32.618Z,21.80
2018-08-09T06:58:01.156Z,21.70
2018-08-09T07:00:29.800Z,21.60
2018-08-09T07:02:59.635Z,21.60
2018-08-09T07:05:29.090Z,21.50
2018-08-09T07:07:57.585Z,21.40
2018-08-09T07:10:26.262Z,21.40
2018-08-09T07:12:54.954Z,21.40
2018-08-09T07:15:23.415Z,21.50
2018-08-09T07:17:53.203Z,21.70
2018-08-09T07:20:21.922Z,21.90
2018-08-09T07:22:51.521Z,22.00
2018-08-09T07:25:20.152Z,22.10
2018-08-09T07:27:49.664Z,22.10
2018-08-09T07:30:18.313Z,22.10
2018-08-09T07:32:46.883Z,22.10
2018-08-09T07:35:15.427Z,22.10
2018-08-09T07:37:44.050Z,22.20
2018-08-09T07:40:13.219Z,22.40
2018-08-09T07:42:42.798Z,22.60
2018-08-09T07:45:12.811Z,22.90
2018-08-09T07:47:41.390Z,23.20
2018-08-09T07:50:10.800Z,23.70
2018-08-09T07:52:39.581Z,24.10
2018-08-09T07:55:09.682Z,24.20
2018-08-09T07:57:38.668Z,24.30
2018-08-09T08:00:09.526Z,24.50
2018-08-09T08:02:38.161Z,24.60
2018-08-09T08:05:07.001Z,24.60
2018-08-09T08:07:35.626Z,24.60
2018-08-09T08:10:05.160Z,24.60
2018-08-09T08:12:33.721Z,24.60
2018-08-09T08:15:02.274Z,24.60
2018-08-09T08:17:30.805Z,24.50
2018-08-09T08:19:59.361Z,24.40
2018-08-09T08:22:28.586Z,24.40
2018-08-09T08:24:57.112Z,24.30
2018-08-09T08:27:25.684Z,24.30
2018-08-09T08:29:54.481Z,24.50
2018-08-09T08:32:23.007Z,24.60
2018-08-09T08:34:51.564Z,24.90
2018-08-09T08:37:20.170Z,25.20
2018-08-09T08:39:48.916Z,25.50
2018-08-09T08:42:17.462Z,25.80
2018-08-09T08:44:45.999Z,26.00
2018-08-09T08:47:14.599Z,26.20
2018-08-09T08:49:43.136Z,26.40
2018-08-09T08:52:11.694Z,26.60
2018-08-09T08:54:40.242Z,26.70
2018-08-09T08:57:08.785Z,26.90
2018-08-09T08:59:37.381Z,27.00
2018-08-09T09:02:05.881Z,27.00
2018-08-09T09:04:34.467Z,27.00
2018-08-09T09:07:02.985Z,26.90
2018-08-09T09:09:31.628Z,26.80
2018-08-09T09:12:00.148Z,26.70
2018-08-09T09:14:28.775Z,26.70
2018-08-09T09:16:57.329Z,26.50
2018-08-09T09:19:25.951Z,26.60
2018-08-09T09:21:54.494Z,26.60
2018-08-09T09:24:23.013Z,26.60
2018-08-09T09:26:51.525Z,26.50
2018-08-09T09:29:20.902Z,26.60
2018-08-09T09:31:49.407Z,26.70
2018-08-09T09:34:17.912Z,26.90
2018-08-09T09:36:46.407Z,27.20
2018-08-09T09:39:14.905Z,27.60
2018-08-09T09:41:43.389Z,27.80
2018-08-09T09:44:11.895Z,28.10
2018-08-09T09:46:40.412Z,28.10
2018-08-09T09:49:09.754Z,28.40
2018-08-09T09:51:38.330Z,28.80
2018-08-09T09:54:06.860Z,29.00
2018-08-09T09:56:35.404Z,29.10
2018-08-09T09:59:04.052Z,29.10
2018-08-09T10:01:33.744Z,29.30
2018-08-09T10:04:02.938Z,29.60
2018-08-09T10:06:32.157Z,29.80
2018-08-09T10:09:00.919Z,29.90
2018-08-09T10:11:29.723Z,30.00
2018-08-09T10:13:58.987Z,30.10
2018-08-09T10:16:27.580Z,30.20
2018-08-09T10:18:56.209Z,30.30
2018-08-09T10:21:25.455Z,30.40
2018-08-09T10:23:54.014Z,30.40
2018-08-09T10:26:23.512Z,30.20
2018-08-09T10:28:52.088Z,29.80
2018-08-09T10:31:20.741Z,29.60
2018-08-09T10:33:49.279Z,29.20
2018-08-09T10:36:18.786Z,28.90
2018-08-09T10:38:47.386Z,28.70
2018-08-09T10:41:16.056Z,28.60
2018-08-09T10:43:44.566Z,28.50
2018-08-09T10:46:13.079Z,28.30
2018-08-09T10:48:41.593Z,28.20
2018-08-09T10:51:10.196Z,28.20
2018-08-09T10:53:38.778Z,28.20
2018-08-09T10:56:07.371Z,28.30
2018-08-09T10:58:35.860Z,28.40
2018-08-09T11:01:04.479Z,28.70
2018-08-09T11:03:33.015Z,29.20
2018-08-09T11:06:01.548Z,29.60
2018-08-09T11:08:30.073Z,30.00
2018-08-09T11:11:02.957Z,30.30
2018-08-09T11:13:31.532Z,30.70
2018-08-09T11:16:00.098Z,31.00
2018-08-09T11:18:28.658Z,31.40
2018-08-09T11:20:57.270Z,31.60
2018-08-09T11:23:25.971Z,31.80
2018-08-09T11:25:54.539Z,32.10
2018-08-09T11:28:23.078Z,32.10
2018-08-09T11:30:51.644Z,32.30
2018-08-09T11:33:20.216Z,32.40
2018-08-09T11:35:48.804Z,32.20
2018-08-09T11:38:17.318Z,31.70
2018-08-09T11:40:45.920Z,31.30
2018-08-09T11:43:15.371Z,31.00
2018-08-09T11:45:43.924Z,30.60
2018-08-09T11:48:12.438Z,30.30
2018-08-09T11:50:41.090Z,30.10
2018-08-09T11:53:09.633Z,30.00
2018-08-09T11:55:38.207Z,30.00
2018-08-09T11:58:06.870Z,30.00
2018-08-09T12:00:35.507Z,30.00
2018-08-09T12:03:04.307Z,30.00
2018-08-09T12:05:32.815Z,30.10
2018-08-09T12:08:01.299Z,30.30
2018-08-09T12:10:29.907Z,30.50
2018-08-09T12:12:58.401Z,30.70
2018-08-09T12:15:26.965Z,30.80
2018-08-09T12:17:55.496Z,31.00
2018-08-09T12:20:24.050Z,31.20
2018-08-09T12:22:53.428Z,31.40
2018-08-09T12:25:21.974Z,31.70
2018-08-09T12:27:50.529Z,31.80
2018-08-09T12:30:19.192Z,32.00
2018-08-09T12:32:47.704Z,32.40
2018-08-09T12:35:16.212Z,32.80
2018-08-09T12:37:44.799Z,33.20
2018-08-09T12:40:13.750Z,33.60
2018-08-09T12:42:42.250Z,33.70
2018-08-09T12:45:12.312Z,33.90
2018-08-09T12:47:41.289Z,33.90
2018-08-09T12:50:12.653Z,33.90
2018-08-09T12:52:42.163Z,33.80
2018-08-09T12:55:11.234Z,33.70
2018-08-09T12:57:39.785Z,33.50
2018-08-09T13:00:10.883Z,33.40
2018-08-09T13:02:39.500Z,33.20
2018-08-09T13:05:09.564Z,33.10
2018-08-09T13:07:38.130Z,32.80
2018-08-09T13:10:08.963Z,32.50
2018-08-09T13:12:37.564Z,32.20
2018-08-09T13:15:08.602Z,32.00
2018-08-09T13:17:37.373Z,31.70
2018-08-09T13:20:07.020Z,31.50
2018-08-09T13:22:35.874Z,31.20
2018-08-09T13:25:04.940Z,31.00
2018-08-09T13:27:33.474Z,30.80
2018-08-09T13:30:02.083Z,30.60
2018-08-09T13:32:30.631Z,30.30
2018-08-09T13:34:59.142Z,30.10
2018-08-09T13:37:27.728Z,30.00
2018-08-09T13:39:56.516Z,29.80
2018-08-09T13:42:25.036Z,29.70
2018-08-09T13:44:53.519Z,29.90
2018-08-09T13:47:22.042Z,30.10
2018-08-09T13:49:50.619Z,30.30
2018-08-09T13:52:19.151Z,30.40
2018-08-09T13:54:47.652Z,30.40
2018-08-09T13:57:16.254Z,30.40
2018-08-09T13:59:44.900Z,30.20
2018-08-09T14:02:13.405Z,29.90
2018-08-09T14:04:41.923Z,29.70
2018-08-09T14:07:10.440Z,29.40
2018-08-09T14:09:38.999Z,29.20
2018-08-09T14:12:07.517Z,29.00
2018-08-09T14:14:36.041Z,28.80
2018-08-09T14:17:05.088Z,28.60
2018-08-09T14:19:33.749Z,28.40
2018-08-09T14:22:02.260Z,28.30
2018-08-09T14:24:30.828Z,28.10
2018-08-09T14:26:59.370Z,27.80
2018-08-09T14:29:28.000Z,27.50
2018-08-09T14:31:56.567Z,26.80
2018-08-09T14:34:25.052Z,25.90
2018-08-09T14:36:54.558Z,25.20
2018-08-09T14:39:23.320Z,24.80
2018-08-09T14:41:51.842Z,24.60
2018-08-09T14:44:20.370Z,24.50
2018-08-09T14:46:48.979Z,24.40
2018-08-09T14:49:18.912Z,24.30
2018-08-09T14:51:48.446Z,24.20
2018-08-09T14:54:16.972Z,24.20
2018-08-09T14:56:45.571Z,24.20
2018-08-09T14:59:14.115Z,24.20
2018-08-09T15:01:42.661Z,24.10
2018-08-09T15:04:11.224Z,24.00
2018-08-09T15:06:39.754Z,23.80
2018-08-09T15:09:11.287Z,23.70
2018-08-09T15:11:39.792Z,23.70
2018-08-09T15:14:09.275Z,23.70
2018-08-09T15:16:37.871Z,23.80
2018-08-09T15:19:06.504Z,23.90
2018-08-09T15:21:40.858Z,24.10
2018-08-09T15:24:09.386Z,24.20
2018-08-09T15:26:37.887Z,24.40
2018-08-09T15:29:06.756Z,24.50
2018-08-09T15:31:35.350Z,24.60
2018-08-09T15:34:03.842Z,24.70
2018-08-09T15:36:32.997Z,24.80
2018-08-09T15:39:01.553Z,24.90
2018-08-09T15:41:30.097Z,25.00
2018-08-09T15:43:58.684Z,25.10
2018-08-09T15:46:28.306Z,25.20
2018-08-09T15:48:56.911Z,25.20
2018-08-09T15:51:25.490Z,25.30
2018-08-09T15:53:54.062Z,25.30
2018-08-09T15:56:22.658Z,25.30
2018-08-09T15:58:51.415Z,25.50
2018-08-09T16:01:20.096Z,26.10
2018-08-09T16:03:49.630Z,29.00
2018-08-09T16:06:18.287Z,33.40
2018-08-09T16:08:46.882Z,37.10
2018-08-09T16:11:15.535Z,40.40
2018-08-09T16:13:44.125Z,42.20
2018-08-09T16:16:12.802Z,42.20
2018-08-09T16:18:41.344Z,43.00
2018-08-09T16:21:10.201Z,43.40
2018-08-09T16:23:38.789Z,43.90
2018-08-09T16:26:07.420Z,43.00
2018-08-09T16:28:37.253Z,41.40
2018-08-09T16:31:07.489Z,39.60
2018-08-09T16:33:36.055Z,39.30
2018-08-09T16:36:04.657Z,40.20
2018-08-09T16:38:34.359Z,41.40
2018-08-09T16:41:02.892Z,42.30
2018-08-09T16:43:31.472Z,42.80
2018-08-09T16:46:00.717Z,43.10
2018-08-09T16:48:30.494Z,43.70
2018-08-09T16:50:59.515Z,44.50
2018-08-09T16:53:28.778Z,44.90
2018-08-09T16:55:57.663Z,45.60
2018-08-09T16:58:27.315Z,45.50
2018-08-09T17:00:56.635Z,45.30
2018-08-09T17:03:25.227Z,45.00
2018-08-09T17:05:55.383Z,43.30
2018-08-09T17:08:24.947Z,40.30
2018-08-09T17:10:54.741Z,38.10
2018-08-09T17:15:52.089Z,34.00
2018-08-09T17:18:22.147Z,32.70
2018-08-09T17:20:52.538Z,31.70
2018-08-09T17:23:23.225Z,30.90
2018-08-09T17:25:51.855Z,30.20
2018-08-09T17:28:20.462Z,29.70
2018-08-09T17:30:49.147Z,29.20
2018-08-09T17:33:17.663Z,29.00
2018-08-09T17:35:46.169Z,28.60
2018-08-09T17:38:15.589Z,28.50
2018-08-09T17:40:45.384Z,28.10
2018-08-09T17:43:14.686Z,27.70
2018-08-09T17:45:43.283Z,27.50
2018-08-09T17:48:11.770Z,27.20
2018-08-09T17:50:40.293Z,26.90
2018-08-09T17:53:09.253Z,26.70
2018-08-09T17:55:37.810Z,26.70
2018-08-09T17:58:06.266Z,26.70
2018-08-09T18:00:35.589Z,26.70
2018-08-09T18:03:07.500Z,26.60
2018-08-09T18:05:35.998Z,26.50
2018-08-09T18:08:04.676Z,26.40
2018-08-09T18:10:34.965Z,26.20
2018-08-09T18:13:03.472Z,26.10
2018-08-09T18:15:32.245Z,26.00
2018-08-09T18:18:01.644Z,25.90
2018-08-09T18:20:31.949Z,25.80
2018-08-09T18:23:00.502Z,25.70
2018-08-09T18:25:29.786Z,25.50
2018-08-09T18:27:58.378Z,25.30
2018-08-09T18:31:56.199Z,25.20
2018-08-09T18:34:24.675Z,25.00
2018-08-09T18:36:53.222Z,24.80
2018-08-09T18:39:21.716Z,24.70
2018-08-09T18:41:50.210Z,24.70
2018-08-09T18:44:18.741Z,24.60
2018-08-09T18:46:47.208Z,24.60
2018-08-09T18:49:15.728Z,24.50
2018-08-09T18:51:44.320Z,24.50
2018-08-09T18:54:13.103Z,24.50
2018-08-09T18:56:43.805Z,24.50
2018-08-09T18:59:12.333Z,24.50
2018-08-09T19:01:40.798Z,24.60
2018-08-09T19:04:09.516Z,24.50
2018-08-09T19:06:39.921Z,24.40
2018-08-09T19:09:09.829Z,24.30
2018-08-09T19:11:38.311Z,24.10
2018-08-09T19:14:06.789Z,24.00
2018-08-09T19:16:35.290Z,23.70
2018-08-09T19:19:03.838Z,23.30
2018-08-09T19:21:32.320Z,23.00
2018-08-09T19:24:00.852Z,22.80
2018-08-09T19:26:29.338Z,22.60
2018-08-09T19:28:57.898Z,22.40
2018-08-09T19:31:26.404Z,22.30
2018-08-09T19:33:55.906Z,22.20
2018-08-09T19:36:24.431Z,22.00
2018-08-09T19:38:52.916Z,22.00
2018-08-09T19:41:21.457Z,21.90
2018-08-09T19:43:49.958Z,21.90
2018-08-09T19:46:18.524Z,21.80
2018-08-09T19:48:47.075Z,21.80
2018-08-09T19:51:15.791Z,21.70
2018-08-09T19:53:44.298Z,21.60
2018-08-09T19:56:13.034Z,21.40
2018-08-09T19:58:41.719Z,21.30
2018-08-09T20:01:10.339Z,21.20
2018-08-09T20:03:39.513Z,21.10
2018-08-09T20:06:08.179Z,21.00
2018-08-09T20:08:36.806Z,20.90
2018-08-09T20:11:05.409Z,20.90
2018-08-09T20:13:33.973Z,20.90
2018-08-09T20:16:02.449Z,20.80
2018-08-09T20:18:31.535Z,20.80
2018-08-09T20:21:00.170Z,20.80
2018-08-09T20:23:28.675Z,20.70
2018-08-09T20:25:57.244Z,20.70
2018-08-09T20:28:25.763Z,20.60
2018-08-09T20:30:54.389Z,20.60
2018-08-09T20:33:22.872Z,20.60
2018-08-09T20:35:51.405Z,20.60
2018-08-09T20:38:19.969Z,20.60
2018-08-09T20:40:48.554Z,20.60
2018-08-09T20:43:17.057Z,20.50
2018-08-09T20:45:45.586Z,20.50
2018-08-09T20:48:14.083Z,20.40
2018-08-09T20:50:42.701Z,20.40
2018-08-09T20:53:11.234Z,20.50
2018-08-09T20:55:40.015Z,20.60
2018-08-09T20:58:08.482Z,20.60
2018-08-09T21:00:37.444Z,20.60
2018-08-09T21:03:06.011Z,20.60
2018-08-09T21:05:38.552Z,20.60
2018-08-09T21:08:07.218Z,20.50
2018-08-09T21:10:35.784Z,20.60
2018-08-09T21:13:04.310Z,20.60
2018-08-09T21:15:32.904Z,20.70
2018-08-09T21:18:01.406Z,20.70
2018-08-09T21:20:30.083Z,20.80
2018-08-09T21:22:58.664Z,20.80
2018-08-09T21:25:27.217Z,20.80
2018-08-09T21:27:55.741Z,20.70
2018-08-09T21:30:24.311Z,20.60
